Terminal Aerodrome Forecast
Issued by NWS

Home | Current Version | Previous Version | Text Only | Print | Product List | Glossary On
Versions: 1 2 3 4 5 6 7 8 9 10 11 12 13 14 15 16
000
FTAK31 PAJN 302320
TAFAJN
TAF
PAJN 302320Z 3100/3124 09012G22KT P6SM BKN100
     FM310500 08009KT P6SM SCT060 BKN100 WS020/05025KT
     FM311200 08011KT P6SM -SHRA BKN070 OVC090 WS020/05025KT
     FM311800 17010KT P6SM VCSH SCT070 BKN090 WS020/05020KT=

USA.gov is the U.S. government's official web portal to all federal, state and local government web resources and services.